sensor_id;sensor_type;location;lat;lon;timestamp;temperature;humidity
22680;DHT22;11507;44.858;10.374;2022-09-03T00:02:25;20.20;99.90
22680;DHT22;11507;44.858;10.374;2022-09-03T00:05:44;20.20;99.90
22680;DHT22;11507;44.858;10.374;2022-09-03T00:14:10;20.20;99.90
22680;DHT22;11507;44.858;10.374;2022-09-03T00:19:38;20.20;99.90
22680;DHT22;11507;44.858;10.374;2022-09-03T00:22:12;20.20;99.90
22680;DHT22;11507;44.858;10.374;2022-09-03T00:24:41;20.20;99.90
22680;DHT22;11507;44.858;10.374;2022-09-03T00:27:14;20.20;99.90
22680;DHT22;11507;44.858;10.374;2022-09-03T00:29:52;20.20;99.90
22680;DHT22;11507;44.858;10.374;2022-09-03T00:32:26;20.20;99.90
22680;DHT22;11507;44.858;10.374;2022-09-03T00:35:01;20.30;99.90
22680;DHT22;11507;44.858;10.374;2022-09-03T00:37:29;20.30;99.90
22680;DHT22;11507;44.858;10.374;2022-09-03T00:39:55;20.30;99.90
22680;DHT22;11507;44.858;10.374;2022-09-03T00:50:32;20.40;99.90
22680;DHT22;11507;44.858;10.374;2022-09-03T00:55:48;20.30;99.90
22680;DHT22;11507;44.858;10.374;2022-09-03T01:01:20;20.40;99.90
22680;DHT22;11507;44.858;10.374;2022-09-03T01:06:17;20.40;99.90
22680;DHT22;11507;44.858;10.374;2022-09-03T01:25:22;20.40;99.90
22680;DHT22;11507;44.858;10.374;2022-09-03T01:31:14;20.40;99.90
22680;DHT22;11507;44.858;10.374;2022-09-03T01:33:51;20.40;99.90
22680;DHT22;11507;44.858;10.374;2022-09-03T01:36:44;20.40;99.90
22680;DHT22;11507;44.858;10.374;2022-09-03T01:39:22;20.40;99.90
22680;DHT22;11507;44.858;10.374;2022-09-03T01:48:13;20.40;99.90
22680;DHT22;11507;44.858;10.374;2022-09-03T01:50:57;20.40;99.90
22680;DHT22;11507;44.858;10.374;2022-09-03T01:56:57;20.40;99.90
22680;DHT22;11507;44.858;10.374;2022-09-03T02:02:23;20.30;99.90
22680;DHT22;11507;44.858;10.374;2022-09-03T02:05:07;20.30;99.90
22680;DHT22;11507;44.858;10.374;2022-09-03T02:10:08;20.20;99.90
22680;DHT22;11507;44.858;10.374;2022-09-03T02:12:35;20.20;99.90
22680;DHT22;11507;44.858;10.374;2022-09-03T02:15:09;20.20;99.90
22680;DHT22;11507;44.858;10.374;2022-09-03T02:17:36;20.20;99.90
22680;DHT22;11507;44.858;10.374;2022-09-03T02:20:06;20.20;99.90
22680;DHT22;11507;44.858;10.374;2022-09-03T02:22:33;20.20;99.90
22680;DHT22;11507;44.858;10.374;2022-09-03T02:24:59;20.10;99.90
22680;DHT22;11507;44.858;10.374;2022-09-03T02:27:26;20.10;99.90
22680;DHT22;11507;44.858;10.374;2022-09-03T02:29:52;20.00;99.90
22680;DHT22;11507;44.858;10.374;2022-09-03T02:32:18;20.00;99.90
22680;DHT22;11507;44.858;10.374;2022-09-03T02:34:44;19.90;99.90
22680;DHT22;11507;44.858;10.374;2022-09-03T02:37:15;19.90;99.90
22680;DHT22;11507;44.858;10.374;2022-09-03T02:39:41;19.90;99.90
22680;DHT22;11507;44.858;10.374;2022-09-03T02:42:11;19.80;99.90
22680;DHT22;11507;44.858;10.374;2022-09-03T02:47:30;19.80;99.90
22680;DHT22;11507;44.858;10.374;2022-09-03T02:49:56;19.70;99.90
22680;DHT22;11507;44.858;10.374;2022-09-03T02:52:22;19.70;99.90
22680;DHT22;11507;44.858;10.374;2022-09-03T02:54:49;19.60;99.90
22680;DHT22;11507;44.858;10.374;2022-09-03T02:57:16;19.50;99.90
22680;DHT22;11507;44.858;10.374;2022-09-03T02:59:43;19.50;99.90
22680;DHT22;11507;44.858;10.374;2022-09-03T03:02:11;19.40;99.90
22680;DHT22;11507;44.858;10.374;2022-09-03T03:04:37;19.30;99.90
22680;DHT22;11507;44.858;10.374;2022-09-03T03:07:04;19.30;99.90
22680;DHT22;11507;44.858;10.374;2022-09-03T03:09:30;19.20;99.90
22680;DHT22;11507;44.858;10.374;2022-09-03T03:11:55;19.10;99.90
22680;DHT22;11507;44.858;10.374;2022-09-03T03:14:22;19.00;99.90
22680;DHT22;11507;44.858;10.374;2022-09-03T03:16:49;18.90;99.90
22680;DHT22;11507;44.858;10.374;2022-09-03T03:19:15;18.90;99.90
22680;DHT22;11507;44.858;10.374;2022-09-03T03:21:41;18.80;99.90
22680;DHT22;11507;44.858;10.374;2022-09-03T03:24:08;18.70;99.90
22680;DHT22;11507;44.858;10.374;2022-09-03T03:26:34;18.70;99.90
22680;DHT22;11507;44.858;10.374;2022-09-03T03:29:00;18.60;99.90
22680;DHT22;11507;44.858;10.374;2022-09-03T03:31:29;18.50;99.90
22680;DHT22;11507;44.858;10.374;2022-09-03T03:33:57;18.50;99.90
22680;DHT22;11507;44.858;10.374;2022-09-03T03:36:25;18.50;99.90
22680;DHT22;11507;44.858;10.374;2022-09-03T03:38:56;18.40;99.90
22680;DHT22;11507;44.858;10.374;2022-09-03T03:41:25;18.40;99.90
22680;DHT22;11507;44.858;10.374;2022-09-03T03:43:56;18.40;99.90
22680;DHT22;11507;44.858;10.374;2022-09-03T03:46:23;18.30;99.90
22680;DHT22;11507;44.858;10.374;2022-09-03T03:48:50;18.30;99.90
22680;DHT22;11507;44.858;10.374;2022-09-03T03:51:17;18.20;99.90
22680;DHT22;11507;44.858;10.374;2022-09-03T03:53:43;18.20;99.90
22680;DHT22;11507;44.858;10.374;2022-09-03T03:56:12;18.20;99.90
22680;DHT22;11507;44.858;10.374;2022-09-03T03:58:39;18.10;99.90
22680;DHT22;11507;44.858;10.374;2022-09-03T04:01:11;18.00;99.90
22680;DHT22;11507;44.858;10.374;2022-09-03T04:03:37;17.90;99.90
22680;DHT22;11507;44.858;10.374;2022-09-03T04:06:04;17.90;99.90
22680;DHT22;11507;44.858;10.374;2022-09-03T04:08:37;17.80;99.90
22680;DHT22;11507;44.858;10.374;2022-09-03T04:11:04;17.80;99.90
22680;DHT22;11507;44.858;10.374;2022-09-03T04:13:36;17.80;99.90
22680;DHT22;11507;44.858;10.374;2022-09-03T04:16:08;17.80;99.90
22680;DHT22;11507;44.858;10.374;2022-09-03T04:18:35;17.80;99.90
22680;DHT22;11507;44.858;10.374;2022-09-03T04:21:06;17.80;99.90
22680;DHT22;11507;44.858;10.374;2022-09-03T04:23:34;17.70;99.90
22680;DHT22;11507;44.858;10.374;2022-09-03T04:26:00;17.70;99.90
22680;DHT22;11507;44.858;10.374;2022-09-03T04:28:26;17.70;99.90
22680;DHT22;11507;44.858;10.374;2022-09-03T04:30:52;17.70;99.90
22680;DHT22;11507;44.858;10.374;2022-09-03T04:33:19;17.70;99.90
22680;DHT22;11507;44.858;10.374;2022-09-03T04:35:45;17.70;99.90
22680;DHT22;11507;44.858;10.374;2022-09-03T04:38:11;17.60;99.90
22680;DHT22;11507;44.858;10.374;2022-09-03T04:40:37;17.60;99.90
22680;DHT22;11507;44.858;10.374;2022-09-03T04:43:03;17.50;99.90
22680;DHT22;11507;44.858;10.374;2022-09-03T04:45:29;17.50;99.90
22680;DHT22;11507;44.858;10.374;2022-09-03T04:48:00;17.40;99.90
22680;DHT22;11507;44.858;10.374;2022-09-03T04:50:28;17.50;99.90
22680;DHT22;11507;44.858;10.374;2022-09-03T04:53:02;17.40;99.90
22680;DHT22;11507;44.858;10.374;2022-09-03T04:55:34;17.40;99.90
22680;DHT22;11507;44.858;10.374;2022-09-03T04:58:00;17.40;99.90
22680;DHT22;11507;44.858;10.374;2022-09-03T05:00:26;17.40;99.90
22680;DHT22;11507;44.858;10.374;2022-09-03T05:02:52;17.40;99.90
22680;DHT22;11507;44.858;10.374;2022-09-03T05:05:18;17.40;99.90
22680;DHT22;11507;44.858;10.374;2022-09-03T05:07:44;17.40;99.90
22680;DHT22;11507;44.858;10.374;2022-09-03T05:10:12;17.40;99.90
22680;DHT22;11507;44.858;10.374;2022-09-03T05:12:41;17.50;99.90
22680;DHT22;11507;44.858;10.374;2022-09-03T05:15:08;17.50;99.90
22680;DHT22;11507;44.858;10.374;2022-09-03T05:17:34;17.50;99.90
22680;DHT22;11507;44.858;10.374;2022-09-03T05:19:59;17.60;99.90
22680;DHT22;11507;44.858;10.374;2022-09-03T05:22:28;17.60;99.90
22680;DHT22;11507;44.858;10.374;2022-09-03T05:24:54;17.70;99.90
22680;DHT22;11507;44.858;10.374;2022-09-03T05:27:20;17.80;99.90
22680;DHT22;11507;44.858;10.374;2022-09-03T05:29:48;17.90;99.90
22680;DHT22;11507;44.858;10.374;2022-09-03T05:32:14;18.00;99.90
22680;DHT22;11507;44.858;10.374;2022-09-03T05:34:44;18.10;99.90
22680;DHT22;11507;44.858;10.374;2022-09-03T05:37:09;18.20;99.90
22680;DHT22;11507;44.858;10.374;2022-09-03T05:39:37;18.20;99.90
22680;DHT22;11507;44.858;10.374;2022-09-03T05:42:03;18.30;99.90
22680;DHT22;11507;44.858;10.374;2022-09-03T05:44:29;18.30;99.90
22680;DHT22;11507;44.858;10.374;2022-09-03T05:46:55;18.40;99.90
22680;DHT22;11507;44.858;10.374;2022-09-03T05:49:21;18.40;99.90
22680;DHT22;11507;44.858;10.374;2022-09-03T05:51:47;18.50;99.90
22680;DHT22;11507;44.858;10.374;2022-09-03T05:54:13;18.50;99.90
22680;DHT22;11507;44.858;10.374;2022-09-03T05:56:40;18.50;99.90
22680;DHT22;11507;44.858;10.374;2022-09-03T05:59:08;18.60;99.90
22680;DHT22;11507;44.858;10.374;2022-09-03T06:01:36;18.70;99.90
22680;DHT22;11507;44.858;10.374;2022-09-03T06:04:10;18.70;99.90
22680;DHT22;11507;44.858;10.374;2022-09-03T06:06:38;18.80;99.90
22680;DHT22;11507;44.858;10.374;2022-09-03T06:09:10;18.90;99.90
22680;DHT22;11507;44.858;10.374;2022-09-03T06:11:37;19.10;99.90
22680;DHT22;11507;44.858;10.374;2022-09-03T06:14:07;19.30;99.90
22680;DHT22;11507;44.858;10.374;2022-09-03T06:16:41;19.60;99.90
22680;DHT22;11507;44.858;10.374;2022-09-03T06:19:09;19.70;99.90
22680;DHT22;11507;44.858;10.374;2022-09-03T06:21:45;19.80;99.90
22680;DHT22;11507;44.858;10.374;2022-09-03T06:24:16;19.90;99.90
22680;DHT22;11507;44.858;10.374;2022-09-03T06:26:43;19.90;99.90
22680;DHT22;11507;44.858;10.374;2022-09-03T06:29:10;20.00;99.90
22680;DHT22;11507;44.858;10.374;2022-09-03T06:31:36;20.10;99.90
22680;DHT22;11507;44.858;10.374;2022-09-03T06:34:02;20.20;99.90
22680;DHT22;11507;44.858;10.374;2022-09-03T06:36:28;20.10;99.90
22680;DHT22;11507;44.858;10.374;2022-09-03T06:38:55;20.20;99.90
22680;DHT22;11507;44.858;10.374;2022-09-03T06:41:24;20.20;99.90
22680;DHT22;11507;44.858;10.374;2022-09-03T06:44:02;20.20;99.90
22680;DHT22;11507;44.858;10.374;2022-09-03T06:46:29;20.20;99.90
22680;DHT22;11507;44.858;10.374;2022-09-03T06:48:55;20.20;99.90
22680;DHT22;11507;44.858;10.374;2022-09-03T06:51:27;20.20;99.90
22680;DHT22;11507;44.858;10.374;2022-09-03T06:53:58;20.20;99.90
22680;DHT22;11507;44.858;10.374;2022-09-03T06:56:24;20.20;99.90
22680;DHT22;11507;44.858;10.374;2022-09-03T06:58:55;20.20;99.90
22680;DHT22;11507;44.858;10.374;2022-09-03T07:01:27;20.30;99.90
22680;DHT22;11507;44.858;10.374;2022-09-03T07:03:57;20.50;99.90
22680;DHT22;11507;44.858;10.374;2022-09-03T07:06:31;20.70;99.90
22680;DHT22;11507;44.858;10.374;2022-09-03T07:08:58;20.90;99.90
22680;DHT22;11507;44.858;10.374;2022-09-03T07:11:27;21.10;99.90
22680;DHT22;11507;44.858;10.374;2022-09-03T07:13:54;21.40;99.90
22680;DHT22;11507;44.858;10.374;2022-09-03T07:16:22;21.70;99.90
22680;DHT22;11507;44.858;10.374;2022-09-03T07:18:50;22.00;99.90
22680;DHT22;11507;44.858;10.374;2022-09-03T07:21:19;22.20;99.90
22680;DHT22;11507;44.858;10.374;2022-09-03T07:23:46;22.40;99.90
22680;DHT22;11507;44.858;10.374;2022-09-03T07:26:17;22.60;99.90
22680;DHT22;11507;44.858;10.374;2022-09-03T07:28:44;22.70;99.90
22680;DHT22;11507;44.858;10.374;2022-09-03T07:31:17;22.80;99.90
22680;DHT22;11507;44.858;10.374;2022-09-03T07:33:47;22.90;99.90
22680;DHT22;11507;44.858;10.374;2022-09-03T07:36:15;22.90;99.90
22680;DHT22;11507;44.858;10.374;2022-09-03T07:38:42;22.90;99.90
22680;DHT22;11507;44.858;10.374;2022-09-03T07:41:13;22.70;99.90
22680;DHT22;11507;44.858;10.374;2022-09-03T07:43:42;22.60;99.90
22680;DHT22;11507;44.858;10.374;2022-09-03T07:46:18;22.50;99.90
22680;DHT22;11507;44.858;10.374;2022-09-03T07:48:47;22.50;99.90
22680;DHT22;11507;44.858;10.374;2022-09-03T07:51:15;22.60;99.90
22680;DHT22;11507;44.858;10.374;2022-09-03T07:53:43;22.70;99.90
22680;DHT22;11507;44.858;10.374;2022-09-03T07:56:10;22.90;99.90
22680;DHT22;11507;44.858;10.374;2022-09-03T07:58:38;23.30;99.90
22680;DHT22;11507;44.858;10.374;2022-09-03T08:01:13;23.50;99.90
22680;DHT22;11507;44.858;10.374;2022-09-03T08:03:43;23.60;99.90
22680;DHT22;11507;44.858;10.374;2022-09-03T08:06:11;23.70;99.90
22680;DHT22;11507;44.858;10.374;2022-09-03T08:08:37;23.90;99.90
22680;DHT22;11507;44.858;10.374;2022-09-03T08:11:13;24.20;99.90
22680;DHT22;11507;44.858;10.374;2022-09-03T08:13:41;24.30;99.90
22680;DHT22;11507;44.858;10.374;2022-09-03T08:16:10;24.10;99.90
22680;DHT22;11507;44.858;10.374;2022-09-03T08:18:37;24.30;99.90
22680;DHT22;11507;44.858;10.374;2022-09-03T08:21:08;24.40;99.90
22680;DHT22;11507;44.858;10.374;2022-09-03T08:23:39;24.40;99.90
22680;DHT22;11507;44.858;10.374;2022-09-03T08:26:05;24.60;99.90
22680;DHT22;11507;44.858;10.374;2022-09-03T08:28:33;24.80;99.90
22680;DHT22;11507;44.858;10.374;2022-09-03T08:31:16;25.00;99.90
22680;DHT22;11507;44.858;10.374;2022-09-03T08:33:46;25.20;99.90
22680;DHT22;11507;44.858;10.374;2022-09-03T08:36:17;25.50;99.90
22680;DHT22;11507;44.858;10.374;2022-09-03T08:38:46;25.70;99.90
22680;DHT22;11507;44.858;10.374;2022-09-03T08:55:10;27.50;99.90
22680;DHT22;11507;44.858;10.374;2022-09-03T08:57:48;28.00;99.90
22680;DHT22;11507;44.858;10.374;2022-09-03T09:00:16;28.30;99.90
22680;DHT22;11507;44.858;10.374;2022-09-03T09:02:47;28.60;99.90
22680;DHT22;11507;44.858;10.374;2022-09-03T09:05:34;28.70;99.90
22680;DHT22;11507;44.858;10.374;2022-09-03T09:08:08;28.60;99.90
22680;DHT22;11507;44.858;10.374;2022-09-03T09:10:45;28.40;99.70
22680;DHT22;11507;44.858;10.374;2022-09-03T09:13:41;28.30;99.30
22680;DHT22;11507;44.858;10.374;2022-09-03T09:24:51;28.00;99.90
22680;DHT22;11507;44.858;10.374;2022-09-03T09:27:17;27.90;99.90
22680;DHT22;11507;44.858;10.374;2022-09-03T09:29:48;27.80;99.90
22680;DHT22;11507;44.858;10.374;2022-09-03T09:32:17;27.80;99.90
22680;DHT22;11507;44.858;10.374;2022-09-03T09:34:44;27.70;99.90
22680;DHT22;11507;44.858;10.374;2022-09-03T09:37:13;27.60;99.90
22680;DHT22;11507;44.858;10.374;2022-09-03T09:39:51;27.50;99.90
22680;DHT22;11507;44.858;10.374;2022-09-03T09:42:21;27.60;99.90
22680;DHT22;11507;44.858;10.374;2022-09-03T09:44:47;28.00;99.90
22680;DHT22;11507;44.858;10.374;2022-09-03T09:47:21;28.30;99.90
22680;DHT22;11507;44.858;10.374;2022-09-03T09:52:17;28.50;99.90
22680;DHT22;11507;44.858;10.374;2022-09-03T09:54:45;28.60;99.90
22680;DHT22;11507;44.858;10.374;2022-09-03T09:57:17;28.30;99.70
22680;DHT22;11507;44.858;10.374;2022-09-03T09:59:45;28.30;99.90
22680;DHT22;11507;44.858;10.374;2022-09-03T10:02:23;28.50;99.90
22680;DHT22;11507;44.858;10.374;2022-09-03T10:05:26;28.90;99.90
22680;DHT22;11507;44.858;10.374;2022-09-03T10:07:58;29.30;98.70
22680;DHT22;11507;44.858;10.374;2022-09-03T10:10:28;29.50;97.40
22680;DHT22;11507;44.858;10.374;2022-09-03T10:13:01;29.50;96.10
22680;DHT22;11507;44.858;10.374;2022-09-03T10:23:43;29.70;95.90
22680;DHT22;11507;44.858;10.374;2022-09-03T10:26:18;30.00;94.90
22680;DHT22;11507;44.858;10.374;2022-09-03T10:28:50;30.20;94.70
22680;DHT22;11507;44.858;10.374;2022-09-03T10:42:45;28.80;96.20
22680;DHT22;11507;44.858;10.374;2022-09-03T10:45:22;28.60;95.90
22680;DHT22;11507;44.858;10.374;2022-09-03T10:48:10;28.50;97.20
22680;DHT22;11507;44.858;10.374;2022-09-03T10:50:43;28.50;97.00
22680;DHT22;11507;44.858;10.374;2022-09-03T10:53:54;28.50;96.40
22680;DHT22;11507;44.858;10.374;2022-09-03T10:56:39;28.30;96.80
22680;DHT22;11507;44.858;10.374;2022-09-03T11:07:06;27.70;99.40
22680;DHT22;11507;44.858;10.374;2022-09-03T11:09:54;27.60;99.90
22680;DHT22;11507;44.858;10.374;2022-09-03T11:12:47;27.20;99.60
22680;DHT22;11507;44.858;10.374;2022-09-03T11:15:33;27.00;99.90
22680;DHT22;11507;44.858;10.374;2022-09-03T11:18:07;26.90;99.90
22680;DHT22;11507;44.858;10.374;2022-09-03T11:20:39;26.80;99.90
22680;DHT22;11507;44.858;10.374;2022-09-03T11:23:08;26.80;99.90
22680;DHT22;11507;44.858;10.374;2022-09-03T11:25:46;26.70;99.90
22680;DHT22;11507;44.858;10.374;2022-09-03T11:33:48;26.50;99.90
22680;DHT22;11507;44.858;10.374;2022-09-03T11:36:31;26.50;99.90
22680;DHT22;11507;44.858;10.374;2022-09-03T11:38:58;26.40;99.90
22680;DHT22;11507;44.858;10.374;2022-09-03T11:41:33;26.40;99.90
22680;DHT22;11507;44.858;10.374;2022-09-03T11:44:18;26.40;99.90
22680;DHT22;11507;44.858;10.374;2022-09-03T11:46:56;26.40;99.90
22680;DHT22;11507;44.858;10.374;2022-09-03T11:49:31;26.30;99.90
22680;DHT22;11507;44.858;10.374;2022-09-03T11:52:03;26.40;99.90
22680;DHT22;11507;44.858;10.374;2022-09-03T11:54:43;26.30;99.90
22680;DHT22;11507;44.858;10.374;2022-09-03T11:57:14;26.30;99.90
22680;DHT22;11507;44.858;10.374;2022-09-03T11:59:42;26.20;99.90
22680;DHT22;11507;44.858;10.374;2022-09-03T12:07:47;25.90;99.90
22680;DHT22;11507;44.858;10.374;2022-09-03T12:16:21;25.20;99.90
22680;DHT22;11507;44.858;10.374;2022-09-03T12:18:50;25.20;99.90
22680;DHT22;11507;44.858;10.374;2022-09-03T12:21:19;25.20;99.90
22680;DHT22;11507;44.858;10.374;2022-09-03T12:23:50;25.30;99.90
22680;DHT22;11507;44.858;10.374;2022-09-03T12:26:25;25.40;99.90
22680;DHT22;11507;44.858;10.374;2022-09-03T12:28:54;25.40;99.90
22680;DHT22;11507;44.858;10.374;2022-09-03T12:31:28;25.40;99.90
22680;DHT22;11507;44.858;10.374;2022-09-03T12:33:58;25.50;99.90
22680;DHT22;11507;44.858;10.374;2022-09-03T12:36:25;25.50;99.90
22680;DHT22;11507;44.858;10.374;2022-09-03T12:38:51;25.60;99.90
22680;DHT22;11507;44.858;10.374;2022-09-03T12:41:23;25.80;99.90
22680;DHT22;11507;44.858;10.374;2022-09-03T12:43:56;25.90;99.90
22680;DHT22;11507;44.858;10.374;2022-09-03T12:46:28;26.00;99.90
22680;DHT22;11507;44.858;10.374;2022-09-03T12:48:56;26.10;99.90
22680;DHT22;11507;44.858;10.374;2022-09-03T12:51:24;26.30;99.90
22680;DHT22;11507;44.858;10.374;2022-09-03T12:53:50;26.50;99.90
22680;DHT22;11507;44.858;10.374;2022-09-03T12:56:18;26.50;99.90
22680;DHT22;11507;44.858;10.374;2022-09-03T12:59:06;26.60;99.90
22680;DHT22;11507;44.858;10.374;2022-09-03T13:01:45;26.60;99.90
22680;DHT22;11507;44.858;10.374;2022-09-03T13:04:19;26.70;99.90
22680;DHT22;11507;44.858;10.374;2022-09-03T13:09:15;27.00;99.90
22680;DHT22;11507;44.858;10.374;2022-09-03T13:11:44;27.20;99.90
22680;DHT22;11507;44.858;10.374;2022-09-03T13:14:13;27.40;99.90
22680;DHT22;11507;44.858;10.374;2022-09-03T13:16:46;27.50;99.90
22680;DHT22;11507;44.858;10.374;2022-09-03T13:36:08;27.00;99.90
22680;DHT22;11507;44.858;10.374;2022-09-03T13:38:42;26.80;99.90
22680;DHT22;11507;44.858;10.374;2022-09-03T13:44:07;26.70;99.90
22680;DHT22;11507;44.858;10.374;2022-09-03T13:52:57;26.10;99.90
22680;DHT22;11507;44.858;10.374;2022-09-03T13:55:51;26.10;99.90
22680;DHT22;11507;44.858;10.374;2022-09-03T14:03:42;25.90;99.90
22680;DHT22;11507;44.858;10.374;2022-09-03T14:12:32;25.80;99.90
22680;DHT22;11507;44.858;10.374;2022-09-03T14:15:06;25.80;99.90
22680;DHT22;11507;44.858;10.374;2022-09-03T14:17:58;25.80;99.90
22680;DHT22;11507;44.858;10.374;2022-09-03T14:20:36;25.80;99.90
22680;DHT22;11507;44.858;10.374;2022-09-03T14:25:55;25.80;99.90
22680;DHT22;11507;44.858;10.374;2022-09-03T14:28:30;25.80;99.90
22680;DHT22;11507;44.858;10.374;2022-09-03T14:31:55;25.90;99.90
22680;DHT22;11507;44.858;10.374;2022-09-03T14:34:43;25.70;99.90
22680;DHT22;11507;44.858;10.374;2022-09-03T14:40:48;25.40;99.90
22680;DHT22;11507;44.858;10.374;2022-09-03T14:46:12;25.30;99.90
22680;DHT22;11507;44.858;10.374;2022-09-03T14:49:16;25.40;99.90
22680;DHT22;11507;44.858;10.374;2022-09-03T14:52:18;26.10;99.90
22680;DHT22;11507;44.858;10.374;2022-09-03T15:00:59;28.60;99.90
22680;DHT22;11507;44.858;10.374;2022-09-03T15:11:32;29.00;99.90
22680;DHT22;11507;44.858;10.374;2022-09-03T15:14:09;28.50;99.90
22680;DHT22;11507;44.858;10.374;2022-09-03T15:16:52;28.10;99.90
22680;DHT22;11507;44.858;10.374;2022-09-03T15:22:33;27.00;99.90
22680;DHT22;11507;44.858;10.374;2022-09-03T15:28:11;26.70;99.90
22680;DHT22;11507;44.858;10.374;2022-09-03T15:30:50;26.50;99.90
22680;DHT22;11507;44.858;10.374;2022-09-03T15:33:36;26.50;99.90
22680;DHT22;11507;44.858;10.374;2022-09-03T15:36:20;26.50;99.90
22680;DHT22;11507;44.858;10.374;2022-09-03T15:39:27;26.50;99.90
22680;DHT22;11507;44.858;10.374;2022-09-03T15:42:03;26.40;99.90
22680;DHT22;11507;44.858;10.374;2022-09-03T15:44:50;26.30;99.90
22680;DHT22;11507;44.858;10.374;2022-09-03T15:50:15;26.00;99.90
22680;DHT22;11507;44.858;10.374;2022-09-03T15:55:33;25.60;99.90
22680;DHT22;11507;44.858;10.374;2022-09-03T15:58:25;25.40;99.90
22680;DHT22;11507;44.858;10.374;2022-09-03T16:06:22;25.20;99.90
22680;DHT22;11507;44.858;10.374;2022-09-03T16:09:00;25.20;99.90
22680;DHT22;11507;44.858;10.374;2022-09-03T16:14:42;24.90;99.90
22680;DHT22;11507;44.858;10.374;2022-09-03T16:17:25;24.90;99.90
22680;DHT22;11507;44.858;10.374;2022-09-03T16:20:07;24.80;99.90
22680;DHT22;11507;44.858;10.374;2022-09-03T16:23:52;24.80;99.90
22680;DHT22;11507;44.858;10.374;2022-09-03T16:26:03;24.60;99.90
22680;DHT22;11507;44.858;10.374;2022-09-03T16:29:02;24.40;99.90
22680;DHT22;11507;44.858;10.374;2022-09-03T16:31:56;24.20;99.90
22680;DHT22;11507;44.858;10.374;2022-09-03T16:37:33;24.00;99.90
22680;DHT22;11507;44.858;10.374;2022-09-03T16:43:00;23.80;99.90
22680;DHT22;11507;44.858;10.374;2022-09-03T16:45:45;23.80;99.90
22680;DHT22;11507;44.858;10.374;2022-09-03T16:49:05;23.70;99.90
22680;DHT22;11507;44.858;10.374;2022-09-03T17:06:07;23.40;99.90
22680;DHT22;11507;44.858;10.374;2022-09-03T17:23:16;23.10;99.90
22680;DHT22;11507;44.858;10.374;2022-09-03T17:25:32;23.10;99.90
22680;DHT22;11507;44.858;10.374;2022-09-03T17:31:01;22.90;99.90
22680;DHT22;11507;44.858;10.374;2022-09-03T17:36:23;22.80;99.90
22680;DHT22;11507;44.858;10.374;2022-09-03T17:39:07;22.80;99.90
22680;DHT22;11507;44.858;10.374;2022-09-03T17:41:49;22.70;99.90
22680;DHT22;11507;44.858;10.374;2022-09-03T17:44:36;22.60;99.90
22680;DHT22;11507;44.858;10.374;2022-09-03T17:50:16;22.60;99.90
22680;DHT22;11507;44.858;10.374;2022-09-03T17:52:46;22.50;99.90
22680;DHT22;11507;44.858;10.374;2022-09-03T17:55:34;22.50;99.90
22680;DHT22;11507;44.858;10.374;2022-09-03T17:58:27;22.50;99.90
22680;DHT22;11507;44.858;10.374;2022-09-03T18:06:03;22.40;99.90
22680;DHT22;11507;44.858;10.374;2022-09-03T18:09:01;22.30;99.90
22680;DHT22;11507;44.858;10.374;2022-09-03T18:11:48;22.10;99.90
22680;DHT22;11507;44.858;10.374;2022-09-03T18:14:29;22.10;99.90
22680;DHT22;11507;44.858;10.374;2022-09-03T18:17:12;22.00;99.90
22680;DHT22;11507;44.858;10.374;2022-09-03T18:20:05;22.00;99.90
22680;DHT22;11507;44.858;10.374;2022-09-03T18:26:10;21.90;99.90
22680;DHT22;11507;44.858;10.374;2022-09-03T18:29:02;21.80;99.90
22680;DHT22;11507;44.858;10.374;2022-09-03T18:31:47;21.70;99.90
22680;DHT22;11507;44.858;10.374;2022-09-03T18:34:37;21.60;99.90
22680;DHT22;11507;44.858;10.374;2022-09-03T18:37:26;21.60;99.90
22680;DHT22;11507;44.858;10.374;2022-09-03T18:40:20;21.50;99.90
22680;DHT22;11507;44.858;10.374;2022-09-03T18:46:08;21.40;99.90
22680;DHT22;11507;44.858;10.374;2022-09-03T18:49:06;21.30;99.90
22680;DHT22;11507;44.858;10.374;2022-09-03T18:56:21;21.20;99.90
22680;DHT22;11507;44.858;10.374;2022-09-03T18:58:37;21.10;99.90
22680;DHT22;11507;44.858;10.374;2022-09-03T19:01:40;21.00;99.90
22680;DHT22;11507;44.858;10.374;2022-09-03T19:08:09;21.00;99.90
22680;DHT22;11507;44.858;10.374;2022-09-03T19:14:27;20.80;99.90
22680;DHT22;11507;44.858;10.374;2022-09-03T19:17:37;20.80;99.90
22680;DHT22;11507;44.858;10.374;2022-09-03T19:20:27;20.70;99.90
22680;DHT22;11507;44.858;10.374;2022-09-03T19:23:12;20.70;99.90
22680;DHT22;11507;44.858;10.374;2022-09-03T19:26:14;20.70;99.90
22680;DHT22;11507;44.858;10.374;2022-09-03T19:29:10;20.70;99.90
22680;DHT22;11507;44.858;10.374;2022-09-03T19:32:02;20.80;99.90
22680;DHT22;11507;44.858;10.374;2022-09-03T19:35:18;20.70;99.90
22680;DHT22;11507;44.858;10.374;2022-09-03T19:41:18;20.70;99.90
22680;DHT22;11507;44.858;10.374;2022-09-03T19:47:01;20.60;99.90
22680;DHT22;11507;44.858;10.374;2022-09-03T19:50:13;20.50;99.90
22680;DHT22;11507;44.858;10.374;2022-09-03T19:53:06;20.50;99.90
22680;DHT22;11507;44.858;10.374;2022-09-03T19:55:54;20.50;99.90
22680;DHT22;11507;44.858;10.374;2022-09-03T19:58:55;20.50;99.90
22680;DHT22;11507;44.858;10.374;2022-09-03T20:01:42;20.40;99.90
22680;DHT22;11507;44.858;10.374;2022-09-03T20:04:40;20.30;99.90
22680;DHT22;11507;44.858;10.374;2022-09-03T20:07:28;20.30;99.90
22680;DHT22;11507;44.858;10.374;2022-09-03T20:10:14;20.20;99.90
22680;DHT22;11507;44.858;10.374;2022-09-03T20:13:12;20.10;99.90
22680;DHT22;11507;44.858;10.374;2022-09-03T20:20:49;20.00;99.90
22680;DHT22;11507;44.858;10.374;2022-09-03T20:23:22;20.00;99.90
22680;DHT22;11507;44.858;10.374;2022-09-03T20:29:01;20.00;99.90
22680;DHT22;11507;44.858;10.374;2022-09-03T20:31:55;19.90;99.90
22680;DHT22;11507;44.858;10.374;2022-09-03T20:34:35;20.00;99.90
22680;DHT22;11507;44.858;10.374;2022-09-03T20:40:40;19.90;99.90
22680;DHT22;11507;44.858;10.374;2022-09-03T20:46:47;19.80;99.90
22680;DHT22;11507;44.858;10.374;2022-09-03T20:52:14;19.70;99.90
22680;DHT22;11507;44.858;10.374;2022-09-03T20:59:52;19.60;99.90
22680;DHT22;11507;44.858;10.374;2022-09-03T21:07:57;19.50;99.90
22680;DHT22;11507;44.858;10.374;2022-09-03T21:10:55;19.60;99.90
22680;DHT22;11507;44.858;10.374;2022-09-03T21:13:40;19.50;99.90
22680;DHT22;11507;44.858;10.374;2022-09-03T21:21:59;19.40;99.90
22680;DHT22;11507;44.858;10.374;2022-09-03T21:27:22;19.40;99.90
22680;DHT22;11507;44.858;10.374;2022-09-03T21:30:02;19.40;99.90